Etusivu
METAR-TAF:

METAR-TAF

Lentoasemat :

Newquay Cornwall, Englanti

Leveyspiiri: 50-26N, Pituuspiiri: 005-00W, korkeus merenpinnasta: 119 m

Tämänhetkinen sää

Tämä raportti tehtiin 31 minuuttia sitten, kello 19.50 UTC
Tuuli 12 kn kaakosta
Lämpötila 16°C
Kosteus 82%
Ilmanpaine 1020 hPa
Näkyvyys 10 km tai enemmän
ei pilviä alle 1500 m:ssä eikä cumulonimbus-pilviä

METAR: EGHQ 231950Z 13012KT CAVOK 16/13 Q1020

Aika: 21:21 (20:21 UTC)

Sääennuste

Tämä raportti tehtiin 3 tuntia ja 19 minuuttia sitten, kello 17.02 UTC
Ennuste voimassa 23. päivästä klo 18 UTC - 23. päivään klo 21 UTC
Tuuli 14 kn kaakosta
Näkyvyys 10 km tai enemmän
Muutamia pilviä 2500 ft:n korkeudessa
Ajoittain
23. päivästä klo 18 UTC - 23. päivään klo 21 UTC
Tuuli 17 kn etelästä puuskistuen 27 kn:hen

TAF: EGHQ 231702Z 2318/2321 14014KT 9999 FEW025 TEMPO 2318/2321 17017G27KT

Säähavainnot ja -ennusteet yli 4000 lentoasemalta (METAR- ja TAF-raportit).

Käytössä olevat sääasemat on merkitty karttaan keltaisilla ja punaisilla pisteillä.

Aseta hiiri pisteen päälle nähdäksesi sääaseman nimen.

Klikkaa sitten nähdäksesi säähavainnot ja -ennusteet.

Kartan vaihtaminen: klikkaa mustalla rastilla varustettuja vihreitä pisteitä, niin voit zoomata sisään; viivalla varustettua vihreää pistettä, niin voit zoomata ulos tai vihreitä nuolia, niin pääset viereisille kartoille.


METAR-TAF: